sensor_id;sensor_type;location;lat;lon;timestamp;P1;durP1;ratioP1;P2;durP2;ratioP2
48100;SDS011;33878;47.442;18.916;2022-08-30T00:02:44;10.30;;;5.53;;
48100;SDS011;33878;47.442;18.916;2022-08-30T00:05:31;8.45;;;5.28;;
48100;SDS011;33878;47.442;18.916;2022-08-30T00:08:18;8.40;;;5.32;;
48100;SDS011;33878;47.442;18.916;2022-08-30T00:11:06;9.45;;;5.62;;
48100;SDS011;33878;47.442;18.916;2022-08-30T00:13:54;8.93;;;5.20;;
48100;SDS011;33878;47.442;18.916;2022-08-30T00:16:41;9.20;;;5.47;;
48100;SDS011;33878;47.442;18.916;2022-08-30T00:19:27;7.82;;;5.53;;
48100;SDS011;33878;47.442;18.916;2022-08-30T00:22:14;8.20;;;5.80;;
48100;SDS011;33878;47.442;18.916;2022-08-30T00:25:00;8.48;;;5.43;;
48100;SDS011;33878;47.442;18.916;2022-08-30T00:27:46;7.57;;;5.53;;
48100;SDS011;33878;47.442;18.916;2022-08-30T00:30:34;7.78;;;5.60;;
48100;SDS011;33878;47.442;18.916;2022-08-30T00:33:23;10.25;;;5.75;;
48100;SDS011;33878;47.442;18.916;2022-08-30T00:36:09;7.35;;;5.35;;
48100;SDS011;33878;47.442;18.916;2022-08-30T00:38:55;9.55;;;5.78;;
48100;SDS011;33878;47.442;18.916;2022-08-30T00:41:41;7.43;;;5.30;;
48100;SDS011;33878;47.442;18.916;2022-08-30T00:44:28;10.35;;;6.15;;
48100;SDS011;33878;47.442;18.916;2022-08-30T00:47:14;8.25;;;5.20;;
48100;SDS011;33878;47.442;18.916;2022-08-30T00:50:00;8.27;;;5.72;;
48100;SDS011;33878;47.442;18.916;2022-08-30T00:52:48;8.02;;;5.50;;
48100;SDS011;33878;47.442;18.916;2022-08-30T00:55:36;8.48;;;5.80;;
48100;SDS011;33878;47.442;18.916;2022-08-30T00:58:28;7.18;;;5.65;;
48100;SDS011;33878;47.442;18.916;2022-08-30T01:01:16;8.32;;;6.00;;
48100;SDS011;33878;47.442;18.916;2022-08-30T01:04:04;9.80;;;5.85;;
48100;SDS011;33878;47.442;18.916;2022-08-30T01:06:51;9.63;;;6.05;;
48100;SDS011;33878;47.442;18.916;2022-08-30T01:09:37;8.00;;;6.35;;
48100;SDS011;33878;47.442;18.916;2022-08-30T01:12:24;7.85;;;5.82;;
48100;SDS011;33878;47.442;18.916;2022-08-30T01:15:11;7.75;;;5.40;;
48100;SDS011;33878;47.442;18.916;2022-08-30T01:17:59;9.43;;;6.15;;
48100;SDS011;33878;47.442;18.916;2022-08-30T01:21:03;8.05;;;6.22;;
48100;SDS011;33878;47.442;18.916;2022-08-30T01:23:55;9.45;;;5.80;;
48100;SDS011;33878;47.442;18.916;2022-08-30T01:26:42;7.43;;;5.72;;
48100;SDS011;33878;47.442;18.916;2022-08-30T01:29:29;10.20;;;5.80;;
48100;SDS011;33878;47.442;18.916;2022-08-30T01:32:23;8.75;;;5.80;;
48100;SDS011;33878;47.442;18.916;2022-08-30T01:35:15;10.90;;;6.00;;
48100;SDS011;33878;47.442;18.916;2022-08-30T01:38:02;7.82;;;5.93;;
48100;SDS011;33878;47.442;18.916;2022-08-30T01:40:50;9.85;;;6.05;;
48100;SDS011;33878;47.442;18.916;2022-08-30T01:43:42;7.57;;;5.78;;
48100;SDS011;33878;47.442;18.916;2022-08-30T01:46:30;10.18;;;5.37;;
48100;SDS011;33878;47.442;18.916;2022-08-30T01:49:21;7.80;;;5.43;;
48100;SDS011;33878;47.442;18.916;2022-08-30T01:55:00;10.35;;;5.80;;
48100;SDS011;33878;47.442;18.916;2022-08-30T01:57:47;8.32;;;5.70;;
48100;SDS011;33878;47.442;18.916;2022-08-30T02:00:34;8.50;;;5.68;;
48100;SDS011;33878;47.442;18.916;2022-08-30T02:03:20;7.87;;;5.40;;
48100;SDS011;33878;47.442;18.916;2022-08-30T02:06:08;11.05;;;5.95;;
48100;SDS011;33878;47.442;18.916;2022-08-30T02:08:57;8.20;;;5.85;;
48100;SDS011;33878;47.442;18.916;2022-08-30T02:11:44;9.80;;;6.07;;
48100;SDS011;33878;47.442;18.916;2022-08-30T02:14:33;7.68;;;5.68;;
48100;SDS011;33878;47.442;18.916;2022-08-30T02:17:21;9.90;;;6.37;;
48100;SDS011;33878;47.442;18.916;2022-08-30T02:20:07;9.27;;;6.55;;
48100;SDS011;33878;47.442;18.916;2022-08-30T02:22:54;7.18;;;5.45;;
48100;SDS011;33878;47.442;18.916;2022-08-30T02:25:45;9.00;;;6.15;;
48100;SDS011;33878;47.442;18.916;2022-08-30T02:28:32;9.35;;;6.03;;
48100;SDS011;33878;47.442;18.916;2022-08-30T02:31:19;8.60;;;5.78;;
48100;SDS011;33878;47.442;18.916;2022-08-30T02:34:06;10.52;;;5.45;;
48100;SDS011;33878;47.442;18.916;2022-08-30T02:36:52;8.55;;;5.95;;
48100;SDS011;33878;47.442;18.916;2022-08-30T02:39:38;7.70;;;5.75;;
48100;SDS011;33878;47.442;18.916;2022-08-30T02:42:24;9.75;;;5.95;;
48100;SDS011;33878;47.442;18.916;2022-08-30T02:45:11;8.57;;;6.22;;
48100;SDS011;33878;47.442;18.916;2022-08-30T02:47:57;7.75;;;5.75;;
48100;SDS011;33878;47.442;18.916;2022-08-30T02:50:44;8.60;;;6.28;;
48100;SDS011;33878;47.442;18.916;2022-08-30T02:53:32;9.80;;;6.20;;
48100;SDS011;33878;47.442;18.916;2022-08-30T02:56:19;14.40;;;7.55;;
48100;SDS011;33878;47.442;18.916;2022-08-30T02:59:05;8.60;;;5.90;;
48100;SDS011;33878;47.442;18.916;2022-08-30T03:01:51;8.57;;;6.43;;
48100;SDS011;33878;47.442;18.916;2022-08-30T03:04:38;9.93;;;6.53;;
48100;SDS011;33878;47.442;18.916;2022-08-30T03:07:24;9.13;;;6.57;;
48100;SDS011;33878;47.442;18.916;2022-08-30T03:10:11;11.68;;;6.78;;
48100;SDS011;33878;47.442;18.916;2022-08-30T03:12:58;9.63;;;6.95;;
48100;SDS011;33878;47.442;18.916;2022-08-30T03:15:44;9.30;;;6.82;;
48100;SDS011;33878;47.442;18.916;2022-08-30T03:18:30;9.63;;;7.30;;
48100;SDS011;33878;47.442;18.916;2022-08-30T03:21:17;10.95;;;6.70;;
48100;SDS011;33878;47.442;18.916;2022-08-30T03:24:04;8.82;;;6.70;;
48100;SDS011;33878;47.442;18.916;2022-08-30T03:26:51;8.95;;;6.70;;
48100;SDS011;33878;47.442;18.916;2022-08-30T03:29:38;9.10;;;6.70;;
48100;SDS011;33878;47.442;18.916;2022-08-30T03:32:24;11.20;;;7.15;;
48100;SDS011;33878;47.442;18.916;2022-08-30T03:35:11;9.20;;;6.80;;
48100;SDS011;33878;47.442;18.916;2022-08-30T03:37:58;10.10;;;6.97;;
48100;SDS011;33878;47.442;18.916;2022-08-30T03:40:45;10.50;;;7.50;;
48100;SDS011;33878;47.442;18.916;2022-08-30T03:43:32;10.65;;;7.20;;
48100;SDS011;33878;47.442;18.916;2022-08-30T03:46:19;11.05;;;7.47;;
48100;SDS011;33878;47.442;18.916;2022-08-30T03:49:11;9.70;;;7.07;;
48100;SDS011;33878;47.442;18.916;2022-08-30T03:51:57;9.68;;;7.45;;
48100;SDS011;33878;47.442;18.916;2022-08-30T03:54:44;11.48;;;7.60;;
48100;SDS011;33878;47.442;18.916;2022-08-30T03:57:30;12.27;;;7.30;;
48100;SDS011;33878;47.442;18.916;2022-08-30T04:00:19;9.77;;;7.05;;
48100;SDS011;33878;47.442;18.916;2022-08-30T04:03:05;14.43;;;8.18;;
48100;SDS011;33878;47.442;18.916;2022-08-30T04:05:53;10.80;;;7.55;;
48100;SDS011;33878;47.442;18.916;2022-08-30T04:08:40;13.57;;;7.82;;
48100;SDS011;33878;47.442;18.916;2022-08-30T04:11:30;11.75;;;8.10;;
48100;SDS011;33878;47.442;18.916;2022-08-30T04:14:16;10.38;;;7.93;;
48100;SDS011;33878;47.442;18.916;2022-08-30T04:17:03;11.75;;;7.40;;
48100;SDS011;33878;47.442;18.916;2022-08-30T04:19:49;11.02;;;8.43;;
48100;SDS011;33878;47.442;18.916;2022-08-30T04:22:36;9.70;;;7.70;;
48100;SDS011;33878;47.442;18.916;2022-08-30T04:25:22;11.23;;;8.32;;
48100;SDS011;33878;47.442;18.916;2022-08-30T04:28:09;11.32;;;8.23;;
48100;SDS011;33878;47.442;18.916;2022-08-30T04:30:55;11.55;;;8.68;;
48100;SDS011;33878;47.442;18.916;2022-08-30T04:33:42;12.18;;;8.65;;
48100;SDS011;33878;47.442;18.916;2022-08-30T04:36:29;11.55;;;8.90;;
48100;SDS011;33878;47.442;18.916;2022-08-30T04:39:18;10.82;;;8.35;;
48100;SDS011;33878;47.442;18.916;2022-08-30T04:42:05;14.05;;;7.57;;
48100;SDS011;33878;47.442;18.916;2022-08-30T04:44:51;10.48;;;7.97;;
48100;SDS011;33878;47.442;18.916;2022-08-30T04:47:38;13.35;;;8.73;;
48100;SDS011;33878;47.442;18.916;2022-08-30T04:50:24;12.18;;;8.18;;
48100;SDS011;33878;47.442;18.916;2022-08-30T04:53:11;13.30;;;8.02;;
48100;SDS011;33878;47.442;18.916;2022-08-30T04:55:58;12.63;;;8.40;;
48100;SDS011;33878;47.442;18.916;2022-08-30T04:58:45;13.38;;;8.38;;
48100;SDS011;33878;47.442;18.916;2022-08-30T05:01:32;12.13;;;8.48;;
48100;SDS011;33878;47.442;18.916;2022-08-30T05:04:30;13.25;;;8.70;;
48100;SDS011;33878;47.442;18.916;2022-08-30T05:07:16;13.13;;;8.27;;
48100;SDS011;33878;47.442;18.916;2022-08-30T05:10:03;13.13;;;8.85;;
48100;SDS011;33878;47.442;18.916;2022-08-30T05:12:55;12.95;;;8.20;;
48100;SDS011;33878;47.442;18.916;2022-08-30T05:15:42;15.15;;;8.50;;
48100;SDS011;33878;47.442;18.916;2022-08-30T05:18:29;13.40;;;8.23;;
48100;SDS011;33878;47.442;18.916;2022-08-30T05:21:17;12.02;;;7.90;;
48100;SDS011;33878;47.442;18.916;2022-08-30T05:24:05;14.55;;;9.07;;
48100;SDS011;33878;47.442;18.916;2022-08-30T05:26:51;12.02;;;7.90;;
48100;SDS011;33878;47.442;18.916;2022-08-30T05:29:38;10.13;;;7.35;;
48100;SDS011;33878;47.442;18.916;2022-08-30T05:32:24;14.60;;;8.43;;
48100;SDS011;33878;47.442;18.916;2022-08-30T05:35:11;11.80;;;7.90;;
48100;SDS011;33878;47.442;18.916;2022-08-30T05:37:58;12.37;;;7.53;;
48100;SDS011;33878;47.442;18.916;2022-08-30T05:40:44;10.60;;;7.10;;
48100;SDS011;33878;47.442;18.916;2022-08-30T05:43:30;14.52;;;8.30;;
48100;SDS011;33878;47.442;18.916;2022-08-30T05:46:16;15.73;;;8.60;;
48100;SDS011;33878;47.442;18.916;2022-08-30T05:49:05;12.68;;;8.32;;
48100;SDS011;33878;47.442;18.916;2022-08-30T05:51:52;10.63;;;7.87;;
48100;SDS011;33878;47.442;18.916;2022-08-30T05:54:38;13.32;;;8.65;;
48100;SDS011;33878;47.442;18.916;2022-08-30T05:57:25;11.57;;;8.23;;
48100;SDS011;33878;47.442;18.916;2022-08-30T06:00:13;13.62;;;8.73;;
48100;SDS011;33878;47.442;18.916;2022-08-30T06:03:02;11.80;;;7.35;;
48100;SDS011;33878;47.442;18.916;2022-08-30T06:05:49;13.75;;;8.25;;
48100;SDS011;33878;47.442;18.916;2022-08-30T06:08:37;9.05;;;6.90;;
48100;SDS011;33878;47.442;18.916;2022-08-30T06:11:24;10.93;;;7.45;;
48100;SDS011;33878;47.442;18.916;2022-08-30T06:14:11;13.73;;;6.70;;
48100;SDS011;33878;47.442;18.916;2022-08-30T06:16:59;9.82;;;6.32;;
48100;SDS011;33878;47.442;18.916;2022-08-30T06:19:45;13.60;;;6.72;;
48100;SDS011;33878;47.442;18.916;2022-08-30T06:22:31;10.02;;;6.25;;
48100;SDS011;33878;47.442;18.916;2022-08-30T06:25:18;7.75;;;5.72;;
48100;SDS011;33878;47.442;18.916;2022-08-30T06:28:05;10.05;;;5.82;;
48100;SDS011;33878;47.442;18.916;2022-08-30T06:30:51;7.75;;;5.53;;
48100;SDS011;33878;47.442;18.916;2022-08-30T06:33:38;8.70;;;5.60;;
48100;SDS011;33878;47.442;18.916;2022-08-30T06:36:25;11.38;;;5.40;;
48100;SDS011;33878;47.442;18.916;2022-08-30T06:39:11;7.57;;;5.12;;
48100;SDS011;33878;47.442;18.916;2022-08-30T06:41:58;8.40;;;5.28;;
48100;SDS011;33878;47.442;18.916;2022-08-30T06:44:44;9.40;;;6.47;;
48100;SDS011;33878;47.442;18.916;2022-08-30T06:47:30;10.25;;;5.60;;
48100;SDS011;33878;47.442;18.916;2022-08-30T06:50:17;11.60;;;6.03;;
48100;SDS011;33878;47.442;18.916;2022-08-30T06:53:04;11.57;;;5.97;;
48100;SDS011;33878;47.442;18.916;2022-08-30T06:56:10;11.52;;;5.47;;
48100;SDS011;33878;47.442;18.916;2022-08-30T06:59:01;8.35;;;5.65;;
48100;SDS011;33878;47.442;18.916;2022-08-30T07:01:47;9.02;;;5.47;;
48100;SDS011;33878;47.442;18.916;2022-08-30T07:04:34;11.05;;;5.20;;
48100;SDS011;33878;47.442;18.916;2022-08-30T07:07:20;11.50;;;5.40;;
48100;SDS011;33878;47.442;18.916;2022-08-30T07:10:08;8.10;;;5.47;;
48100;SDS011;33878;47.442;18.916;2022-08-30T07:12:55;9.10;;;5.32;;
48100;SDS011;33878;47.442;18.916;2022-08-30T07:15:42;10.38;;;4.95;;
48100;SDS011;33878;47.442;18.916;2022-08-30T07:18:29;9.50;;;5.35;;
48100;SDS011;33878;47.442;18.916;2022-08-30T07:21:36;9.57;;;5.55;;
48100;SDS011;33878;47.442;18.916;2022-08-30T07:24:23;10.35;;;5.60;;
48100;SDS011;33878;47.442;18.916;2022-08-30T07:27:10;11.07;;;5.50;;
48100;SDS011;33878;47.442;18.916;2022-08-30T07:29:56;7.90;;;5.28;;
48100;SDS011;33878;47.442;18.916;2022-08-30T07:32:43;9.02;;;5.22;;
48100;SDS011;33878;47.442;18.916;2022-08-30T07:35:29;7.87;;;5.45;;
48100;SDS011;33878;47.442;18.916;2022-08-30T07:38:16;8.00;;;4.78;;
48100;SDS011;33878;47.442;18.916;2022-08-30T07:41:03;6.87;;;4.57;;
48100;SDS011;33878;47.442;18.916;2022-08-30T07:43:50;7.07;;;5.03;;
48100;SDS011;33878;47.442;18.916;2022-08-30T07:46:37;8.10;;;4.87;;
48100;SDS011;33878;47.442;18.916;2022-08-30T07:49:24;8.55;;;5.25;;
48100;SDS011;33878;47.442;18.916;2022-08-30T07:52:11;7.70;;;4.90;;
48100;SDS011;33878;47.442;18.916;2022-08-30T07:54:57;7.62;;;5.30;;
48100;SDS011;33878;47.442;18.916;2022-08-30T07:57:44;11.88;;;5.70;;
48100;SDS011;33878;47.442;18.916;2022-08-30T08:00:30;6.05;;;4.53;;
48100;SDS011;33878;47.442;18.916;2022-08-30T08:03:16;7.35;;;4.95;;
48100;SDS011;33878;47.442;18.916;2022-08-30T08:06:02;8.63;;;5.22;;
48100;SDS011;33878;47.442;18.916;2022-08-30T08:08:50;9.63;;;4.60;;
48100;SDS011;33878;47.442;18.916;2022-08-30T08:11:38;10.20;;;5.65;;
48100;SDS011;33878;47.442;18.916;2022-08-30T08:14:26;6.95;;;4.97;;
48100;SDS011;33878;47.442;18.916;2022-08-30T08:17:13;8.38;;;4.80;;
48100;SDS011;33878;47.442;18.916;2022-08-30T08:19:59;10.05;;;5.35;;
48100;SDS011;33878;47.442;18.916;2022-08-30T08:22:45;8.02;;;5.12;;
48100;SDS011;33878;47.442;18.916;2022-08-30T08:25:32;9.27;;;5.22;;
48100;SDS011;33878;47.442;18.916;2022-08-30T08:28:20;8.15;;;4.97;;
48100;SDS011;33878;47.442;18.916;2022-08-30T08:31:17;9.85;;;5.12;;
48100;SDS011;33878;47.442;18.916;2022-08-30T08:34:12;9.48;;;4.68;;
48100;SDS011;33878;47.442;18.916;2022-08-30T08:36:58;8.73;;;4.57;;
48100;SDS011;33878;47.442;18.916;2022-08-30T08:39:45;9.30;;;4.68;;
48100;SDS011;33878;47.442;18.916;2022-08-30T08:42:39;8.82;;;4.87;;
48100;SDS011;33878;47.442;18.916;2022-08-30T08:45:40;6.10;;;4.55;;
48100;SDS011;33878;47.442;18.916;2022-08-30T08:51:43;7.30;;;5.00;;
48100;SDS011;33878;47.442;18.916;2022-08-30T08:54:54;6.75;;;4.37;;
48100;SDS011;33878;47.442;18.916;2022-08-30T08:57:43;9.38;;;4.75;;
48100;SDS011;33878;47.442;18.916;2022-08-30T09:00:30;8.25;;;4.70;;
48100;SDS011;33878;47.442;18.916;2022-08-30T09:03:17;7.20;;;4.82;;
48100;SDS011;33878;47.442;18.916;2022-08-30T09:06:10;7.28;;;4.68;;
48100;SDS011;33878;47.442;18.916;2022-08-30T09:09:00;8.15;;;5.45;;
48100;SDS011;33878;47.442;18.916;2022-08-30T09:11:47;9.73;;;5.32;;
48100;SDS011;33878;47.442;18.916;2022-08-30T09:14:38;8.52;;;4.85;;
48100;SDS011;33878;47.442;18.916;2022-08-30T09:17:53;9.80;;;5.75;;
48100;SDS011;33878;47.442;18.916;2022-08-30T09:20:43;7.80;;;5.43;;
48100;SDS011;33878;47.442;18.916;2022-08-30T09:23:33;10.32;;;5.40;;
48100;SDS011;33878;47.442;18.916;2022-08-30T09:26:28;9.25;;;5.18;;
48100;SDS011;33878;47.442;18.916;2022-08-30T09:29:16;7.85;;;5.47;;
48100;SDS011;33878;47.442;18.916;2022-08-30T09:32:04;9.35;;;5.78;;
48100;SDS011;33878;47.442;18.916;2022-08-30T09:35:17;8.75;;;5.45;;
48100;SDS011;33878;47.442;18.916;2022-08-30T09:40:58;9.07;;;5.20;;
48100;SDS011;33878;47.442;18.916;2022-08-30T09:44:02;9.10;;;5.40;;
48100;SDS011;33878;47.442;18.916;2022-08-30T09:47:17;9.63;;;5.80;;
48100;SDS011;33878;47.442;18.916;2022-08-30T09:50:13;8.77;;;5.35;;
48100;SDS011;33878;47.442;18.916;2022-08-30T09:53:24;7.80;;;5.40;;
48100;SDS011;33878;47.442;18.916;2022-08-30T10:10:40;10.13;;;5.87;;
48100;SDS011;33878;47.442;18.916;2022-08-30T10:16:52;7.65;;;5.65;;
48100;SDS011;33878;47.442;18.916;2022-08-30T10:19:56;9.77;;;5.65;;
48100;SDS011;33878;47.442;18.916;2022-08-30T10:25:47;8.25;;;5.85;;
48100;SDS011;33878;47.442;18.916;2022-08-30T10:31:48;9.60;;;5.53;;
48100;SDS011;33878;47.442;18.916;2022-08-30T10:34:39;8.20;;;5.82;;
48100;SDS011;33878;47.442;18.916;2022-08-30T10:37:30;9.25;;;5.85;;
48100;SDS011;33878;47.442;18.916;2022-08-30T10:40:34;8.07;;;5.75;;
48100;SDS011;33878;47.442;18.916;2022-08-30T10:43:42;9.13;;;6.18;;
48100;SDS011;33878;47.442;18.916;2022-08-30T10:49:48;7.87;;;5.95;;
48100;SDS011;33878;47.442;18.916;2022-08-30T10:55:35;9.25;;;5.72;;
48100;SDS011;33878;47.442;18.916;2022-08-30T10:58:38;9.45;;;6.18;;
48100;SDS011;33878;47.442;18.916;2022-08-30T11:08:49;10.80;;;6.22;;
48100;SDS011;33878;47.442;18.916;2022-08-30T11:14:25;10.30;;;6.12;;
48100;SDS011;33878;47.442;18.916;2022-08-30T11:17:24;6.85;;;5.18;;
48100;SDS011;33878;47.442;18.916;2022-08-30T11:23:25;10.75;;;6.37;;
48100;SDS011;33878;47.442;18.916;2022-08-30T11:26:49;9.77;;;5.72;;
48100;SDS011;33878;47.442;18.916;2022-08-30T11:29:44;9.80;;;5.90;;
48100;SDS011;33878;47.442;18.916;2022-08-30T11:32:56;10.68;;;5.87;;
48100;SDS011;33878;47.442;18.916;2022-08-30T11:35:56;7.18;;;5.18;;
48100;SDS011;33878;47.442;18.916;2022-08-30T11:41:40;8.52;;;5.43;;
48100;SDS011;33878;47.442;18.916;2022-08-30T11:44:32;8.02;;;5.00;;
48100;SDS011;33878;47.442;18.916;2022-08-30T11:50:29;9.75;;;5.18;;
48100;SDS011;33878;47.442;18.916;2022-08-30T11:59:54;8.23;;;5.80;;
48100;SDS011;33878;47.442;18.916;2022-08-30T12:06:00;7.45;;;5.35;;
48100;SDS011;33878;47.442;18.916;2022-08-30T12:08:49;11.80;;;5.53;;
48100;SDS011;33878;47.442;18.916;2022-08-30T12:15:25;10.40;;;5.62;;
48100;SDS011;33878;47.442;18.916;2022-08-30T12:21:33;8.13;;;5.82;;
48100;SDS011;33878;47.442;18.916;2022-08-30T12:24:40;7.18;;;5.20;;
48100;SDS011;33878;47.442;18.916;2022-08-30T12:27:31;8.95;;;5.43;;
48100;SDS011;33878;47.442;18.916;2022-08-30T12:30:23;6.95;;;5.40;;
48100;SDS011;33878;47.442;18.916;2022-08-30T12:33:13;6.45;;;4.85;;
48100;SDS011;33878;47.442;18.916;2022-08-30T12:39:23;7.97;;;5.82;;
48100;SDS011;33878;47.442;18.916;2022-08-30T12:45:11;11.48;;;5.93;;
48100;SDS011;33878;47.442;18.916;2022-08-30T12:48:01;11.25;;;5.47;;
48100;SDS011;33878;47.442;18.916;2022-08-30T12:50:52;6.40;;;5.07;;
48100;SDS011;33878;47.442;18.916;2022-08-30T12:53:40;7.03;;;5.30;;
48100;SDS011;33878;47.442;18.916;2022-08-30T12:56:43;5.60;;;4.72;;
48100;SDS011;33878;47.442;18.916;2022-08-30T12:59:46;7.28;;;5.18;;
48100;SDS011;33878;47.442;18.916;2022-08-30T13:02:46;6.00;;;4.70;;
48100;SDS011;33878;47.442;18.916;2022-08-30T13:08:32;7.15;;;5.15;;
48100;SDS011;33878;47.442;18.916;2022-08-30T13:17:28;5.47;;;4.53;;
48100;SDS011;33878;47.442;18.916;2022-08-30T13:23:06;5.93;;;4.70;;
48100;SDS011;33878;47.442;18.916;2022-08-30T13:25:53;7.70;;;4.20;;
48100;SDS011;33878;47.442;18.916;2022-08-30T13:31:33;6.37;;;4.90;;
48100;SDS011;33878;47.442;18.916;2022-08-30T13:34:21;8.35;;;4.80;;
48100;SDS011;33878;47.442;18.916;2022-08-30T13:37:13;6.30;;;4.70;;
48100;SDS011;33878;47.442;18.916;2022-08-30T13:40:24;8.80;;;4.87;;
48100;SDS011;33878;47.442;18.916;2022-08-30T13:43:11;6.22;;;4.75;;
48100;SDS011;33878;47.442;18.916;2022-08-30T13:45:58;6.85;;;4.45;;
48100;SDS011;33878;47.442;18.916;2022-08-30T13:48:44;5.30;;;4.53;;
48100;SDS011;33878;47.442;18.916;2022-08-30T13:51:31;5.50;;;4.85;;
48100;SDS011;33878;47.442;18.916;2022-08-30T13:54:21;5.90;;;4.50;;
48100;SDS011;33878;47.442;18.916;2022-08-30T13:57:08;5.53;;;4.40;;
48100;SDS011;33878;47.442;18.916;2022-08-30T13:59:55;6.10;;;4.60;;
48100;SDS011;33878;47.442;18.916;2022-08-30T14:02:42;6.28;;;4.50;;
48100;SDS011;33878;47.442;18.916;2022-08-30T14:05:42;5.82;;;4.28;;
48100;SDS011;33878;47.442;18.916;2022-08-30T14:08:41;7.60;;;4.80;;
48100;SDS011;33878;47.442;18.916;2022-08-30T14:11:36;6.18;;;4.65;;
48100;SDS011;33878;47.442;18.916;2022-08-30T14:14:23;5.32;;;4.28;;
48100;SDS011;33878;47.442;18.916;2022-08-30T14:17:28;7.60;;;4.47;;
48100;SDS011;33878;47.442;18.916;2022-08-30T14:20:17;7.40;;;4.47;;
48100;SDS011;33878;47.442;18.916;2022-08-30T14:23:04;5.85;;;4.35;;
48100;SDS011;33878;47.442;18.916;2022-08-30T14:25:54;5.82;;;4.60;;
48100;SDS011;33878;47.442;18.916;2022-08-30T14:28:41;6.37;;;4.50;;
48100;SDS011;33878;47.442;18.916;2022-08-30T14:31:29;6.40;;;4.55;;
48100;SDS011;33878;47.442;18.916;2022-08-30T14:34:18;8.45;;;4.47;;
48100;SDS011;33878;47.442;18.916;2022-08-30T14:37:06;6.05;;;4.20;;
48100;SDS011;33878;47.442;18.916;2022-08-30T14:39:53;5.25;;;4.30;;
48100;SDS011;33878;47.442;18.916;2022-08-30T14:42:40;6.20;;;4.20;;
48100;SDS011;33878;47.442;18.916;2022-08-30T14:45:26;7.90;;;4.28;;
48100;SDS011;33878;47.442;18.916;2022-08-30T14:48:12;6.47;;;4.60;;
48100;SDS011;33878;47.442;18.916;2022-08-30T14:51:00;6.90;;;4.75;;
48100;SDS011;33878;47.442;18.916;2022-08-30T14:53:50;7.00;;;4.87;;
48100;SDS011;33878;47.442;18.916;2022-08-30T14:56:38;7.18;;;4.47;;
48100;SDS011;33878;47.442;18.916;2022-08-30T14:59:25;13.23;;;5.30;;
48100;SDS011;33878;47.442;18.916;2022-08-30T15:02:12;8.13;;;4.90;;
48100;SDS011;33878;47.442;18.916;2022-08-30T15:04:58;6.65;;;4.20;;
48100;SDS011;33878;47.442;18.916;2022-08-30T15:07:47;11.77;;;4.80;;
48100;SDS011;33878;47.442;18.916;2022-08-30T15:10:38;7.50;;;5.18;;
48100;SDS011;33878;47.442;18.916;2022-08-30T15:13:27;6.35;;;4.82;;
48100;SDS011;33878;47.442;18.916;2022-08-30T15:16:15;9.00;;;4.93;;
48100;SDS011;33878;47.442;18.916;2022-08-30T15:19:05;6.85;;;4.97;;
48100;SDS011;33878;47.442;18.916;2022-08-30T15:21:53;7.65;;;4.93;;
48100;SDS011;33878;47.442;18.916;2022-08-30T15:24:39;8.55;;;5.03;;
48100;SDS011;33878;47.442;18.916;2022-08-30T15:27:25;8.38;;;5.00;;
48100;SDS011;33878;47.442;18.916;2022-08-30T15:30:11;8.70;;;5.37;;
48100;SDS011;33878;47.442;18.916;2022-08-30T15:32:59;10.20;;;5.00;;
48100;SDS011;33878;47.442;18.916;2022-08-30T15:35:46;6.85;;;4.78;;
48100;SDS011;33878;47.442;18.916;2022-08-30T15:38:34;10.77;;;4.93;;
48100;SDS011;33878;47.442;18.916;2022-08-30T15:41:22;7.45;;;5.30;;
48100;SDS011;33878;47.442;18.916;2022-08-30T15:44:08;8.52;;;5.55;;
48100;SDS011;33878;47.442;18.916;2022-08-30T15:46:56;7.90;;;4.97;;
48100;SDS011;33878;47.442;18.916;2022-08-30T15:49:42;10.23;;;5.12;;
48100;SDS011;33878;47.442;18.916;2022-08-30T15:52:29;6.80;;;4.93;;
48100;SDS011;33878;47.442;18.916;2022-08-30T15:55:16;8.73;;;5.50;;
48100;SDS011;33878;47.442;18.916;2022-08-30T15:58:02;9.65;;;5.10;;
48100;SDS011;33878;47.442;18.916;2022-08-30T16:00:49;7.22;;;5.10;;
48100;SDS011;33878;47.442;18.916;2022-08-30T16:03:36;7.55;;;5.05;;
48100;SDS011;33878;47.442;18.916;2022-08-30T16:06:27;9.40;;;5.65;;
48100;SDS011;33878;47.442;18.916;2022-08-30T16:09:15;7.70;;;5.18;;
48100;SDS011;33878;47.442;18.916;2022-08-30T16:12:02;8.18;;;5.25;;
48100;SDS011;33878;47.442;18.916;2022-08-30T16:14:50;8.13;;;5.10;;
48100;SDS011;33878;47.442;18.916;2022-08-30T16:17:36;7.53;;;4.55;;
48100;SDS011;33878;47.442;18.916;2022-08-30T16:20:24;11.38;;;6.65;;
48100;SDS011;33878;47.442;18.916;2022-08-30T16:23:10;8.50;;;5.45;;
48100;SDS011;33878;47.442;18.916;2022-08-30T16:25:56;6.55;;;4.95;;
48100;SDS011;33878;47.442;18.916;2022-08-30T16:28:49;13.43;;;6.50;;
48100;SDS011;33878;47.442;18.916;2022-08-30T16:31:37;8.73;;;5.07;;
48100;SDS011;33878;47.442;18.916;2022-08-30T16:34:24;8.48;;;5.75;;
48100;SDS011;33878;47.442;18.916;2022-08-30T16:37:10;8.40;;;4.45;;
48100;SDS011;33878;47.442;18.916;2022-08-30T16:39:57;10.73;;;4.97;;
48100;SDS011;33878;47.442;18.916;2022-08-30T16:42:43;9.43;;;4.32;;
48100;SDS011;33878;47.442;18.916;2022-08-30T16:45:30;5.20;;;4.20;;
48100;SDS011;33878;47.442;18.916;2022-08-30T16:48:19;5.32;;;3.87;;
48100;SDS011;33878;47.442;18.916;2022-08-30T16:51:09;6.60;;;4.07;;
48100;SDS011;33878;47.442;18.916;2022-08-30T16:53:59;6.82;;;4.05;;
48100;SDS011;33878;47.442;18.916;2022-08-30T16:56:48;7.18;;;4.37;;
48100;SDS011;33878;47.442;18.916;2022-08-30T16:59:35;8.65;;;4.50;;
48100;SDS011;33878;47.442;18.916;2022-08-30T17:02:21;5.45;;;4.18;;
48100;SDS011;33878;47.442;18.916;2022-08-30T17:05:10;6.15;;;4.20;;
48100;SDS011;33878;47.442;18.916;2022-08-30T17:07:57;9.80;;;4.65;;
48100;SDS011;33878;47.442;18.916;2022-08-30T17:10:44;5.72;;;4.20;;
48100;SDS011;33878;47.442;18.916;2022-08-30T17:13:34;6.63;;;3.83;;
48100;SDS011;33878;47.442;18.916;2022-08-30T17:16:21;7.10;;;3.97;;
48100;SDS011;33878;47.442;18.916;2022-08-30T17:19:13;9.02;;;4.43;;
48100;SDS011;33878;47.442;18.916;2022-08-30T17:22:01;6.07;;;4.03;;
48100;SDS011;33878;47.442;18.916;2022-08-30T17:24:47;7.68;;;3.92;;
48100;SDS011;33878;47.442;18.916;2022-08-30T17:27:33;5.47;;;3.78;;
48100;SDS011;33878;47.442;18.916;2022-08-30T17:30:21;8.77;;;3.90;;
48100;SDS011;33878;47.442;18.916;2022-08-30T17:33:08;5.80;;;3.47;;
48100;SDS011;33878;47.442;18.916;2022-08-30T17:35:55;7.62;;;4.05;;
48100;SDS011;33878;47.442;18.916;2022-08-30T17:38:42;7.18;;;4.12;;
48100;SDS011;33878;47.442;18.916;2022-08-30T17:41:30;5.20;;;3.70;;
48100;SDS011;33878;47.442;18.916;2022-08-30T17:44:17;6.87;;;4.18;;
48100;SDS011;33878;47.442;18.916;2022-08-30T17:47:04;8.05;;;4.47;;
48100;SDS011;33878;47.442;18.916;2022-08-30T17:49:51;7.85;;;4.18;;
48100;SDS011;33878;47.442;18.916;2022-08-30T17:52:37;9.65;;;4.68;;
48100;SDS011;33878;47.442;18.916;2022-08-30T17:55:24;8.30;;;4.65;;
48100;SDS011;33878;47.442;18.916;2022-08-30T17:58:15;6.55;;;4.07;;
48100;SDS011;33878;47.442;18.916;2022-08-30T18:01:07;6.55;;;3.80;;
48100;SDS011;33878;47.442;18.916;2022-08-30T18:03:57;6.45;;;3.90;;
48100;SDS011;33878;47.442;18.916;2022-08-30T18:06:47;8.00;;;4.03;;
48100;SDS011;33878;47.442;18.916;2022-08-30T18:09:34;7.32;;;4.05;;
48100;SDS011;33878;47.442;18.916;2022-08-30T18:12:22;6.80;;;4.22;;
48100;SDS011;33878;47.442;18.916;2022-08-30T18:15:12;9.07;;;4.40;;
48100;SDS011;33878;47.442;18.916;2022-08-30T18:18:00;11.85;;;4.85;;